sensor_id;sensor_type;location;lat;lon;timestamp;temperature;humidity
16174;DHT22;14031;50.158;8.626;2023-05-19T00:01:00;13.40;99.90
16174;DHT22;14031;50.158;8.626;2023-05-19T00:03:28;13.40;99.90
16174;DHT22;14031;50.158;8.626;2023-05-19T00:05:57;13.40;99.90
16174;DHT22;14031;50.158;8.626;2023-05-19T00:08:26;13.40;99.90
16174;DHT22;14031;50.158;8.626;2023-05-19T00:10:56;13.30;99.90
16174;DHT22;14031;50.158;8.626;2023-05-19T00:13:24;13.30;99.90
16174;DHT22;14031;50.158;8.626;2023-05-19T00:15:51;13.30;99.90
16174;DHT22;14031;50.158;8.626;2023-05-19T00:18:18;13.30;99.90
16174;DHT22;14031;50.158;8.626;2023-05-19T00:20:45;13.20;99.90
16174;DHT22;14031;50.158;8.626;2023-05-19T00:23:13;13.30;99.90
16174;DHT22;14031;50.158;8.626;2023-05-19T00:25:40;13.40;99.90
16174;DHT22;14031;50.158;8.626;2023-05-19T00:28:06;13.30;99.90
16174;DHT22;14031;50.158;8.626;2023-05-19T00:30:33;13.30;99.90
16174;DHT22;14031;50.158;8.626;2023-05-19T00:33:00;13.20;99.90
16174;DHT22;14031;50.158;8.626;2023-05-19T00:35:26;13.10;99.90
16174;DHT22;14031;50.158;8.626;2023-05-19T00:37:53;13.10;99.90
16174;DHT22;14031;50.158;8.626;2023-05-19T00:40:23;13.20;99.90
16174;DHT22;14031;50.158;8.626;2023-05-19T00:42:51;13.00;99.90
16174;DHT22;14031;50.158;8.626;2023-05-19T00:45:18;13.00;99.90
16174;DHT22;14031;50.158;8.626;2023-05-19T00:47:45;12.90;99.90
16174;DHT22;14031;50.158;8.626;2023-05-19T00:50:11;12.90;99.90
16174;DHT22;14031;50.158;8.626;2023-05-19T00:52:38;12.90;99.90
16174;DHT22;14031;50.158;8.626;2023-05-19T00:55:06;12.80;99.90
16174;DHT22;14031;50.158;8.626;2023-05-19T00:57:35;12.70;99.90
16174;DHT22;14031;50.158;8.626;2023-05-19T01:00:02;12.70;99.90
16174;DHT22;14031;50.158;8.626;2023-05-19T01:02:30;12.60;99.90
16174;DHT22;14031;50.158;8.626;2023-05-19T01:04:57;12.60;99.90
16174;DHT22;14031;50.158;8.626;2023-05-19T01:07:25;12.50;99.90
16174;DHT22;14031;50.158;8.626;2023-05-19T01:09:51;12.50;99.90
16174;DHT22;14031;50.158;8.626;2023-05-19T01:12:18;12.50;99.90
16174;DHT22;14031;50.158;8.626;2023-05-19T01:14:46;12.40;99.90
16174;DHT22;14031;50.158;8.626;2023-05-19T01:17:20;12.40;99.90
16174;DHT22;14031;50.158;8.626;2023-05-19T01:19:55;12.30;99.90
16174;DHT22;14031;50.158;8.626;2023-05-19T01:22:31;12.20;99.90
16174;DHT22;14031;50.158;8.626;2023-05-19T01:28:25;12.30;99.90
16174;DHT22;14031;50.158;8.626;2023-05-19T01:30:58;12.20;99.90
16174;DHT22;14031;50.158;8.626;2023-05-19T01:33:26;12.20;99.90
16174;DHT22;14031;50.158;8.626;2023-05-19T01:35:54;12.20;99.90
16174;DHT22;14031;50.158;8.626;2023-05-19T01:38:22;12.10;99.90
16174;DHT22;14031;50.158;8.626;2023-05-19T01:40:51;12.20;99.90
16174;DHT22;14031;50.158;8.626;2023-05-19T01:43:21;12.10;99.90
16174;DHT22;14031;50.158;8.626;2023-05-19T01:45:49;12.00;99.90
16174;DHT22;14031;50.158;8.626;2023-05-19T01:48:18;12.00;99.90
16174;DHT22;14031;50.158;8.626;2023-05-19T01:50:45;12.00;99.90
16174;DHT22;14031;50.158;8.626;2023-05-19T01:53:12;12.00;99.90
16174;DHT22;14031;50.158;8.626;2023-05-19T01:55:43;11.90;99.90
16174;DHT22;14031;50.158;8.626;2023-05-19T01:58:17;12.00;99.90
16174;DHT22;14031;50.158;8.626;2023-05-19T02:00:52;11.90;99.90
16174;DHT22;14031;50.158;8.626;2023-05-19T02:03:43;11.90;99.90
16174;DHT22;14031;50.158;8.626;2023-05-19T02:06:23;11.90;99.90
16174;DHT22;14031;50.158;8.626;2023-05-19T02:08:57;11.80;99.90
16174;DHT22;14031;50.158;8.626;2023-05-19T02:11:34;11.70;99.90
16174;DHT22;14031;50.158;8.626;2023-05-19T02:14:03;11.70;99.90
16174;DHT22;14031;50.158;8.626;2023-05-19T02:16:33;11.70;99.90
16174;DHT22;14031;50.158;8.626;2023-05-19T02:19:03;11.80;99.90
16174;DHT22;14031;50.158;8.626;2023-05-19T02:21:29;11.60;99.90
16174;DHT22;14031;50.158;8.626;2023-05-19T02:23:56;11.60;99.90
16174;DHT22;14031;50.158;8.626;2023-05-19T02:26:23;11.50;99.90
16174;DHT22;14031;50.158;8.626;2023-05-19T02:28:50;11.50;99.90
16174;DHT22;14031;50.158;8.626;2023-05-19T02:31:17;11.50;99.90
16174;DHT22;14031;50.158;8.626;2023-05-19T02:33:44;11.50;99.90
16174;DHT22;14031;50.158;8.626;2023-05-19T02:36:12;11.50;99.90
16174;DHT22;14031;50.158;8.626;2023-05-19T02:38:39;11.60;99.90
16174;DHT22;14031;50.158;8.626;2023-05-19T02:41:06;11.50;99.90
16174;DHT22;14031;50.158;8.626;2023-05-19T02:43:32;11.40;99.90
16174;DHT22;14031;50.158;8.626;2023-05-19T02:45:59;11.40;99.90
16174;DHT22;14031;50.158;8.626;2023-05-19T02:48:26;11.30;99.90
16174;DHT22;14031;50.158;8.626;2023-05-19T02:50:53;11.20;99.90
16174;DHT22;14031;50.158;8.626;2023-05-19T02:53:21;11.20;99.90
16174;DHT22;14031;50.158;8.626;2023-05-19T02:55:47;11.20;99.90
16174;DHT22;14031;50.158;8.626;2023-05-19T02:58:14;11.20;99.90
16174;DHT22;14031;50.158;8.626;2023-05-19T03:00:41;11.20;99.90
16174;DHT22;14031;50.158;8.626;2023-05-19T03:03:09;11.20;99.90
16174;DHT22;14031;50.158;8.626;2023-05-19T03:05:36;11.20;99.90
16174;DHT22;14031;50.158;8.626;2023-05-19T03:08:03;11.20;99.90
16174;DHT22;14031;50.158;8.626;2023-05-19T03:10:31;11.20;99.90
16174;DHT22;14031;50.158;8.626;2023-05-19T03:12:58;11.30;99.90
16174;DHT22;14031;50.158;8.626;2023-05-19T03:15:25;11.10;99.90
16174;DHT22;14031;50.158;8.626;2023-05-19T03:17:52;11.10;99.90
16174;DHT22;14031;50.158;8.626;2023-05-19T03:20:19;11.10;99.90
16174;DHT22;14031;50.158;8.626;2023-05-19T03:22:45;11.00;99.90
16174;DHT22;14031;50.158;8.626;2023-05-19T03:25:12;11.00;99.90
16174;DHT22;14031;50.158;8.626;2023-05-19T03:27:40;11.00;99.90
16174;DHT22;14031;50.158;8.626;2023-05-19T03:30:08;11.00;99.90
16174;DHT22;14031;50.158;8.626;2023-05-19T03:32:35;11.00;99.90
16174;DHT22;14031;50.158;8.626;2023-05-19T03:35:02;11.00;99.90
16174;DHT22;14031;50.158;8.626;2023-05-19T03:37:30;10.90;99.90
16174;DHT22;14031;50.158;8.626;2023-05-19T03:39:57;10.90;99.90
16174;DHT22;14031;50.158;8.626;2023-05-19T03:42:23;10.80;99.90
16174;DHT22;14031;50.158;8.626;2023-05-19T03:44:51;10.80;99.90
16174;DHT22;14031;50.158;8.626;2023-05-19T03:47:18;10.80;99.90
16174;DHT22;14031;50.158;8.626;2023-05-19T03:49:45;10.90;99.90
16174;DHT22;14031;50.158;8.626;2023-05-19T03:52:12;10.80;99.90
16174;DHT22;14031;50.158;8.626;2023-05-19T03:54:38;10.90;99.90
16174;DHT22;14031;50.158;8.626;2023-05-19T03:57:07;10.80;99.90
16174;DHT22;14031;50.158;8.626;2023-05-19T03:59:35;10.80;99.90
16174;DHT22;14031;50.158;8.626;2023-05-19T04:02:04;10.80;99.90
16174;DHT22;14031;50.158;8.626;2023-05-19T04:04:31;10.90;99.90
16174;DHT22;14031;50.158;8.626;2023-05-19T04:06:58;10.80;99.90
16174;DHT22;14031;50.158;8.626;2023-05-19T04:09:24;10.80;99.90
16174;DHT22;14031;50.158;8.626;2023-05-19T04:11:51;10.80;99.90
16174;DHT22;14031;50.158;8.626;2023-05-19T04:14:18;10.80;99.90
16174;DHT22;14031;50.158;8.626;2023-05-19T04:16:45;10.80;99.90
16174;DHT22;14031;50.158;8.626;2023-05-19T04:19:13;10.80;99.90
16174;DHT22;14031;50.158;8.626;2023-05-19T04:21:40;10.80;99.90
16174;DHT22;14031;50.158;8.626;2023-05-19T04:24:07;10.80;99.90
16174;DHT22;14031;50.158;8.626;2023-05-19T04:26:34;10.90;99.90
16174;DHT22;14031;50.158;8.626;2023-05-19T04:29:02;10.90;99.90
16174;DHT22;14031;50.158;8.626;2023-05-19T04:31:29;10.80;99.90
16174;DHT22;14031;50.158;8.626;2023-05-19T04:33:56;10.70;99.90
16174;DHT22;14031;50.158;8.626;2023-05-19T04:36:24;10.80;99.90
16174;DHT22;14031;50.158;8.626;2023-05-19T04:38:52;10.90;99.90
16174;DHT22;14031;50.158;8.626;2023-05-19T04:41:19;10.80;99.90
16174;DHT22;14031;50.158;8.626;2023-05-19T04:43:46;11.00;99.90
16174;DHT22;14031;50.158;8.626;2023-05-19T04:46:14;10.90;99.90
16174;DHT22;14031;50.158;8.626;2023-05-19T04:48:41;10.90;99.90
16174;DHT22;14031;50.158;8.626;2023-05-19T04:51:08;10.90;99.90
16174;DHT22;14031;50.158;8.626;2023-05-19T04:53:40;11.00;99.90
16174;DHT22;14031;50.158;8.626;2023-05-19T04:56:07;11.00;99.90
16174;DHT22;14031;50.158;8.626;2023-05-19T04:58:34;11.00;99.90
16174;DHT22;14031;50.158;8.626;2023-05-19T05:01:02;11.10;99.90
16174;DHT22;14031;50.158;8.626;2023-05-19T05:03:29;11.00;99.90
16174;DHT22;14031;50.158;8.626;2023-05-19T05:05:57;11.10;99.90
16174;DHT22;14031;50.158;8.626;2023-05-19T05:08:24;11.30;99.90
16174;DHT22;14031;50.158;8.626;2023-05-19T05:10:53;11.20;99.90
16174;DHT22;14031;50.158;8.626;2023-05-19T05:13:21;11.30;99.90
16174;DHT22;14031;50.158;8.626;2023-05-19T05:15:49;11.30;99.90
16174;DHT22;14031;50.158;8.626;2023-05-19T05:18:18;11.30;99.90
16174;DHT22;14031;50.158;8.626;2023-05-19T05:20:45;11.40;99.90
16174;DHT22;14031;50.158;8.626;2023-05-19T05:23:13;11.50;99.90
16174;DHT22;14031;50.158;8.626;2023-05-19T05:25:41;11.50;99.90
16174;DHT22;14031;50.158;8.626;2023-05-19T05:28:10;11.60;99.90
16174;DHT22;14031;50.158;8.626;2023-05-19T05:30:37;11.60;99.90
16174;DHT22;14031;50.158;8.626;2023-05-19T05:33:04;11.70;99.90
16174;DHT22;14031;50.158;8.626;2023-05-19T05:35:31;11.70;99.90
16174;DHT22;14031;50.158;8.626;2023-05-19T05:37:58;11.70;99.90
16174;DHT22;14031;50.158;8.626;2023-05-19T05:40:26;11.70;99.90
16174;DHT22;14031;50.158;8.626;2023-05-19T05:42:52;11.80;99.90
16174;DHT22;14031;50.158;8.626;2023-05-19T05:45:22;11.90;99.90
16174;DHT22;14031;50.158;8.626;2023-05-19T05:47:49;11.90;99.90
16174;DHT22;14031;50.158;8.626;2023-05-19T05:50:16;12.00;99.90
16174;DHT22;14031;50.158;8.626;2023-05-19T05:52:45;12.10;99.90
16174;DHT22;14031;50.158;8.626;2023-05-19T05:55:13;12.10;99.90
16174;DHT22;14031;50.158;8.626;2023-05-19T05:57:40;12.10;99.90
16174;DHT22;14031;50.158;8.626;2023-05-19T06:00:08;12.20;99.90
16174;DHT22;14031;50.158;8.626;2023-05-19T06:02:41;12.30;99.90
16174;DHT22;14031;50.158;8.626;2023-05-19T06:05:08;12.40;99.90
16174;DHT22;14031;50.158;8.626;2023-05-19T06:07:37;12.50;99.90
16174;DHT22;14031;50.158;8.626;2023-05-19T06:10:04;12.60;99.90
16174;DHT22;14031;50.158;8.626;2023-05-19T06:12:32;12.70;99.90
16174;DHT22;14031;50.158;8.626;2023-05-19T06:14:58;12.60;99.90
16174;DHT22;14031;50.158;8.626;2023-05-19T06:17:25;12.80;99.90
16174;DHT22;14031;50.158;8.626;2023-05-19T06:19:53;12.80;99.90
16174;DHT22;14031;50.158;8.626;2023-05-19T06:22:20;12.90;99.90
16174;DHT22;14031;50.158;8.626;2023-05-19T06:24:47;13.00;99.90
16174;DHT22;14031;50.158;8.626;2023-05-19T06:27:13;12.80;99.90
16174;DHT22;14031;50.158;8.626;2023-05-19T06:29:40;13.00;99.90
16174;DHT22;14031;50.158;8.626;2023-05-19T06:32:07;13.10;99.90
16174;DHT22;14031;50.158;8.626;2023-05-19T06:34:34;13.20;99.90
16174;DHT22;14031;50.158;8.626;2023-05-19T06:37:04;13.30;99.90
16174;DHT22;14031;50.158;8.626;2023-05-19T06:39:30;13.30;99.90
16174;DHT22;14031;50.158;8.626;2023-05-19T06:41:57;13.50;99.90
16174;DHT22;14031;50.158;8.626;2023-05-19T06:44:24;13.60;99.90
16174;DHT22;14031;50.158;8.626;2023-05-19T06:46:51;13.60;99.90
16174;DHT22;14031;50.158;8.626;2023-05-19T06:49:18;13.70;99.90
16174;DHT22;14031;50.158;8.626;2023-05-19T06:51:44;13.80;99.90
16174;DHT22;14031;50.158;8.626;2023-05-19T06:54:13;13.80;99.90
16174;DHT22;14031;50.158;8.626;2023-05-19T06:56:40;13.80;99.90
16174;DHT22;14031;50.158;8.626;2023-05-19T06:59:07;13.90;99.90
16174;DHT22;14031;50.158;8.626;2023-05-19T07:01:34;13.90;99.90
16174;DHT22;14031;50.158;8.626;2023-05-19T07:04:00;13.90;99.90
16174;DHT22;14031;50.158;8.626;2023-05-19T07:06:27;14.00;99.90
16174;DHT22;14031;50.158;8.626;2023-05-19T07:08:54;14.10;99.90
16174;DHT22;14031;50.158;8.626;2023-05-19T07:11:22;14.10;99.90
16174;DHT22;14031;50.158;8.626;2023-05-19T07:13:49;14.10;99.90
16174;DHT22;14031;50.158;8.626;2023-05-19T07:16:15;14.30;99.90
16174;DHT22;14031;50.158;8.626;2023-05-19T07:18:42;14.30;99.90
16174;DHT22;14031;50.158;8.626;2023-05-19T07:21:09;14.50;99.90
16174;DHT22;14031;50.158;8.626;2023-05-19T07:23:36;14.50;99.90
16174;DHT22;14031;50.158;8.626;2023-05-19T07:26:03;14.60;99.90
16174;DHT22;14031;50.158;8.626;2023-05-19T07:28:31;14.70;99.90
16174;DHT22;14031;50.158;8.626;2023-05-19T07:30:58;14.90;99.90
16174;DHT22;14031;50.158;8.626;2023-05-19T07:33:25;15.00;99.90
16174;DHT22;14031;50.158;8.626;2023-05-19T07:35:52;15.20;99.90
16174;DHT22;14031;50.158;8.626;2023-05-19T07:38:19;15.30;99.90
16174;DHT22;14031;50.158;8.626;2023-05-19T07:40:46;15.30;99.90
16174;DHT22;14031;50.158;8.626;2023-05-19T07:43:12;15.30;99.90
16174;DHT22;14031;50.158;8.626;2023-05-19T07:45:41;15.40;99.90
16174;DHT22;14031;50.158;8.626;2023-05-19T07:48:07;15.50;99.90
16174;DHT22;14031;50.158;8.626;2023-05-19T07:50:34;15.60;99.90
16174;DHT22;14031;50.158;8.626;2023-05-19T07:53:01;15.60;99.90
16174;DHT22;14031;50.158;8.626;2023-05-19T07:55:28;15.60;99.90
16174;DHT22;14031;50.158;8.626;2023-05-19T07:57:55;15.60;99.90
16174;DHT22;14031;50.158;8.626;2023-05-19T08:00:22;15.60;99.90
16174;DHT22;14031;50.158;8.626;2023-05-19T08:02:50;15.80;99.90
16174;DHT22;14031;50.158;8.626;2023-05-19T08:05:17;15.90;99.90
16174;DHT22;14031;50.158;8.626;2023-05-19T08:07:44;16.10;99.90
16174;DHT22;14031;50.158;8.626;2023-05-19T08:10:10;16.20;99.90
16174;DHT22;14031;50.158;8.626;2023-05-19T08:12:37;16.20;99.90
16174;DHT22;14031;50.158;8.626;2023-05-19T08:15:05;16.30;99.90
16174;DHT22;14031;50.158;8.626;2023-05-19T08:17:32;16.40;99.90
16174;DHT22;14031;50.158;8.626;2023-05-19T08:20:00;16.50;99.90
16174;DHT22;14031;50.158;8.626;2023-05-19T08:22:28;16.50;99.90
16174;DHT22;14031;50.158;8.626;2023-05-19T08:24:55;16.60;99.90
16174;DHT22;14031;50.158;8.626;2023-05-19T08:27:23;16.50;99.90
16174;DHT22;14031;50.158;8.626;2023-05-19T08:29:49;16.50;99.90
16174;DHT22;14031;50.158;8.626;2023-05-19T08:32:16;16.60;99.90
16174;DHT22;14031;50.158;8.626;2023-05-19T08:34:43;16.70;99.90
16174;DHT22;14031;50.158;8.626;2023-05-19T08:37:11;16.80;99.90
16174;DHT22;14031;50.158;8.626;2023-05-19T08:39:38;16.90;99.90
16174;DHT22;14031;50.158;8.626;2023-05-19T08:42:07;16.90;99.90
16174;DHT22;14031;50.158;8.626;2023-05-19T08:44:34;17.10;99.90
16174;DHT22;14031;50.158;8.626;2023-05-19T08:47:02;17.20;99.90
16174;DHT22;14031;50.158;8.626;2023-05-19T08:49:34;17.20;99.90
16174;DHT22;14031;50.158;8.626;2023-05-19T08:52:13;17.40;99.90
16174;DHT22;14031;50.158;8.626;2023-05-19T08:54:48;17.50;99.90
16174;DHT22;14031;50.158;8.626;2023-05-19T08:57:16;17.70;99.90
16174;DHT22;14031;50.158;8.626;2023-05-19T08:59:43;17.60;99.90
16174;DHT22;14031;50.158;8.626;2023-05-19T09:02:12;17.70;99.90
16174;DHT22;14031;50.158;8.626;2023-05-19T09:04:39;17.80;99.90
16174;DHT22;14031;50.158;8.626;2023-05-19T09:07:11;18.00;99.90
16174;DHT22;14031;50.158;8.626;2023-05-19T09:09:38;18.00;99.90
16174;DHT22;14031;50.158;8.626;2023-05-19T09:12:09;18.10;99.90
16174;DHT22;14031;50.158;8.626;2023-05-19T09:14:36;18.20;99.90
16174;DHT22;14031;50.158;8.626;2023-05-19T09:17:04;18.10;99.90
16174;DHT22;14031;50.158;8.626;2023-05-19T09:19:31;18.20;99.90
16174;DHT22;14031;50.158;8.626;2023-05-19T09:21:58;18.50;99.90
16174;DHT22;14031;50.158;8.626;2023-05-19T09:24:26;18.20;99.90
16174;DHT22;14031;50.158;8.626;2023-05-19T09:26:55;18.30;99.90
16174;DHT22;14031;50.158;8.626;2023-05-19T09:29:23;18.40;99.90
16174;DHT22;14031;50.158;8.626;2023-05-19T09:31:51;18.40;99.90
16174;DHT22;14031;50.158;8.626;2023-05-19T09:34:19;18.50;99.90
16174;DHT22;14031;50.158;8.626;2023-05-19T09:36:47;18.50;99.90
16174;DHT22;14031;50.158;8.626;2023-05-19T09:39:15;18.60;99.90
16174;DHT22;14031;50.158;8.626;2023-05-19T09:41:43;18.80;99.90
16174;DHT22;14031;50.158;8.626;2023-05-19T09:44:20;18.90;99.90
16174;DHT22;14031;50.158;8.626;2023-05-19T09:46:49;19.00;99.90
16174;DHT22;14031;50.158;8.626;2023-05-19T09:49:21;19.10;99.90
16174;DHT22;14031;50.158;8.626;2023-05-19T09:51:49;19.30;99.90
16174;DHT22;14031;50.158;8.626;2023-05-19T09:54:16;19.30;99.90
16174;DHT22;14031;50.158;8.626;2023-05-19T09:56:50;19.40;99.90
16174;DHT22;14031;50.158;8.626;2023-05-19T09:59:19;19.60;99.90
16174;DHT22;14031;50.158;8.626;2023-05-19T10:01:52;19.50;99.90
16174;DHT22;14031;50.158;8.626;2023-05-19T10:04:20;19.60;99.90
16174;DHT22;14031;50.158;8.626;2023-05-19T10:06:49;19.70;99.90
16174;DHT22;14031;50.158;8.626;2023-05-19T10:09:21;19.90;99.90
16174;DHT22;14031;50.158;8.626;2023-05-19T10:11:50;20.00;99.90
16174;DHT22;14031;50.158;8.626;2023-05-19T10:14:18;20.10;99.90
16174;DHT22;14031;50.158;8.626;2023-05-19T10:16:49;20.10;99.90
16174;DHT22;14031;50.158;8.626;2023-05-19T10:19:19;20.20;99.90
16174;DHT22;14031;50.158;8.626;2023-05-19T10:21:47;20.10;99.90
16174;DHT22;14031;50.158;8.626;2023-05-19T10:24:14;20.10;99.90
16174;DHT22;14031;50.158;8.626;2023-05-19T10:26:45;20.10;99.90
16174;DHT22;14031;50.158;8.626;2023-05-19T10:29:17;20.00;99.90
16174;DHT22;14031;50.158;8.626;2023-05-19T10:31:46;19.90;99.90
16174;DHT22;14031;50.158;8.626;2023-05-19T10:37:12;20.10;99.90
16174;DHT22;14031;50.158;8.626;2023-05-19T10:39:42;20.20;99.90
16174;DHT22;14031;50.158;8.626;2023-05-19T10:42:14;20.40;99.90
16174;DHT22;14031;50.158;8.626;2023-05-19T10:44:54;20.60;99.90
16174;DHT22;14031;50.158;8.626;2023-05-19T10:47:22;20.90;99.90
16174;DHT22;14031;50.158;8.626;2023-05-19T10:49:52;21.00;99.90
16174;DHT22;14031;50.158;8.626;2023-05-19T10:52:21;21.20;99.90
16174;DHT22;14031;50.158;8.626;2023-05-19T10:54:50;21.40;99.90
16174;DHT22;14031;50.158;8.626;2023-05-19T10:57:20;21.50;99.90
16174;DHT22;14031;50.158;8.626;2023-05-19T10:59:50;21.50;99.90
16174;DHT22;14031;50.158;8.626;2023-05-19T11:02:35;21.50;99.90
16174;DHT22;14031;50.158;8.626;2023-05-19T11:05:08;21.60;99.90
16174;DHT22;14031;50.158;8.626;2023-05-19T11:07:36;21.70;99.90
16174;DHT22;14031;50.158;8.626;2023-05-19T11:10:06;21.80;99.90
16174;DHT22;14031;50.158;8.626;2023-05-19T11:12:40;21.80;99.90
16174;DHT22;14031;50.158;8.626;2023-05-19T11:15:10;21.80;99.90
16174;DHT22;14031;50.158;8.626;2023-05-19T11:17:38;21.80;99.90
16174;DHT22;14031;50.158;8.626;2023-05-19T11:20:18;21.70;99.90
16174;DHT22;14031;50.158;8.626;2023-05-19T11:23:02;21.80;99.90
16174;DHT22;14031;50.158;8.626;2023-05-19T11:25:43;21.90;99.90
16174;DHT22;14031;50.158;8.626;2023-05-19T11:28:11;22.10;99.90
16174;DHT22;14031;50.158;8.626;2023-05-19T11:30:40;22.30;99.90
16174;DHT22;14031;50.158;8.626;2023-05-19T11:33:09;22.50;99.90
16174;DHT22;14031;50.158;8.626;2023-05-19T11:35:37;22.60;99.90
16174;DHT22;14031;50.158;8.626;2023-05-19T11:38:04;22.80;99.90
16174;DHT22;14031;50.158;8.626;2023-05-19T11:40:32;23.00;99.90
16174;DHT22;14031;50.158;8.626;2023-05-19T11:42:59;23.10;99.90
16174;DHT22;14031;50.158;8.626;2023-05-19T11:45:27;23.20;99.90
16174;DHT22;14031;50.158;8.626;2023-05-19T11:47:54;23.20;99.90
16174;DHT22;14031;50.158;8.626;2023-05-19T11:50:22;23.30;99.90
16174;DHT22;14031;50.158;8.626;2023-05-19T11:52:51;23.40;99.90
16174;DHT22;14031;50.158;8.626;2023-05-19T11:55:19;23.50;99.90
16174;DHT22;14031;50.158;8.626;2023-05-19T11:57:59;23.50;99.90
16174;DHT22;14031;50.158;8.626;2023-05-19T12:00:26;23.60;99.20
16174;DHT22;14031;50.158;8.626;2023-05-19T12:02:53;23.40;99.00
16174;DHT22;14031;50.158;8.626;2023-05-19T12:05:20;23.30;99.60
16174;DHT22;14031;50.158;8.626;2023-05-19T12:07:48;23.20;99.90
16174;DHT22;14031;50.158;8.626;2023-05-19T12:10:17;23.20;99.90
16174;DHT22;14031;50.158;8.626;2023-05-19T12:12:47;23.30;98.50
16174;DHT22;14031;50.158;8.626;2023-05-19T12:15:18;23.40;98.50
16174;DHT22;14031;50.158;8.626;2023-05-19T12:17:47;23.40;99.20
16174;DHT22;14031;50.158;8.626;2023-05-19T12:20:14;23.60;99.90
16174;DHT22;14031;50.158;8.626;2023-05-19T12:22:41;23.70;99.90
16174;DHT22;14031;50.158;8.626;2023-05-19T12:25:09;23.90;99.30
16174;DHT22;14031;50.158;8.626;2023-05-19T12:27:37;24.00;98.70
16174;DHT22;14031;50.158;8.626;2023-05-19T12:30:04;24.10;98.90
16174;DHT22;14031;50.158;8.626;2023-05-19T12:32:33;24.10;99.60
16174;DHT22;14031;50.158;8.626;2023-05-19T12:35:02;24.30;99.50
16174;DHT22;14031;50.158;8.626;2023-05-19T12:37:30;24.30;98.80
16174;DHT22;14031;50.158;8.626;2023-05-19T12:39:58;24.40;98.90
16174;DHT22;14031;50.158;8.626;2023-05-19T12:42:26;24.20;97.50
16174;DHT22;14031;50.158;8.626;2023-05-19T12:44:57;24.00;98.60
16174;DHT22;14031;50.158;8.626;2023-05-19T12:47:29;23.90;99.90
16174;DHT22;14031;50.158;8.626;2023-05-19T12:50:00;23.70;99.60
16174;DHT22;14031;50.158;8.626;2023-05-19T12:52:29;23.70;99.90
16174;DHT22;14031;50.158;8.626;2023-05-19T12:54:57;23.60;98.90
16174;DHT22;14031;50.158;8.626;2023-05-19T12:57:24;23.60;99.90
16174;DHT22;14031;50.158;8.626;2023-05-19T12:59:51;23.40;99.90
16174;DHT22;14031;50.158;8.626;2023-05-19T13:02:19;23.40;99.90
16174;DHT22;14031;50.158;8.626;2023-05-19T13:04:46;23.30;99.90
16174;DHT22;14031;50.158;8.626;2023-05-19T13:07:13;23.20;99.90
16174;DHT22;14031;50.158;8.626;2023-05-19T13:10:01;23.10;99.90
16174;DHT22;14031;50.158;8.626;2023-05-19T13:12:28;23.10;99.90
16174;DHT22;14031;50.158;8.626;2023-05-19T13:14:55;23.20;99.90
16174;DHT22;14031;50.158;8.626;2023-05-19T13:17:23;23.50;99.90
16174;DHT22;14031;50.158;8.626;2023-05-19T13:19:52;23.60;99.90
16174;DHT22;14031;50.158;8.626;2023-05-19T13:22:21;23.70;99.90
16174;DHT22;14031;50.158;8.626;2023-05-19T13:24:48;23.80;99.90
16174;DHT22;14031;50.158;8.626;2023-05-19T13:27:17;23.90;99.90
16174;DHT22;14031;50.158;8.626;2023-05-19T13:29:44;23.80;99.90
16174;DHT22;14031;50.158;8.626;2023-05-19T13:32:11;24.00;99.90
16174;DHT22;14031;50.158;8.626;2023-05-19T13:34:39;24.10;99.90
16174;DHT22;14031;50.158;8.626;2023-05-19T13:37:05;24.20;99.90
16174;DHT22;14031;50.158;8.626;2023-05-19T13:39:34;24.30;96.80
16174;DHT22;14031;50.158;8.626;2023-05-19T13:42:00;24.40;98.50
16174;DHT22;14031;50.158;8.626;2023-05-19T13:44:27;24.70;97.50
16174;DHT22;14031;50.158;8.626;2023-05-19T13:46:54;25.00;98.40
16174;DHT22;14031;50.158;8.626;2023-05-19T13:49:21;25.30;96.90
16174;DHT22;14031;50.158;8.626;2023-05-19T13:51:49;25.70;96.70
16174;DHT22;14031;50.158;8.626;2023-05-19T13:54:16;25.90;94.50
16174;DHT22;14031;50.158;8.626;2023-05-19T13:56:43;26.40;95.20
16174;DHT22;14031;50.158;8.626;2023-05-19T13:59:11;26.80;91.60
16174;DHT22;14031;50.158;8.626;2023-05-19T14:01:38;27.00;91.50
16174;DHT22;14031;50.158;8.626;2023-05-19T14:04:04;27.10;89.90
16174;DHT22;14031;50.158;8.626;2023-05-19T14:06:31;27.00;90.60
16174;DHT22;14031;50.158;8.626;2023-05-19T14:08:59;26.90;90.50
16174;DHT22;14031;50.158;8.626;2023-05-19T14:11:26;27.00;88.90
16174;DHT22;14031;50.158;8.626;2023-05-19T14:13:53;27.20;90.60
16174;DHT22;14031;50.158;8.626;2023-05-19T14:16:20;27.50;90.20
16174;DHT22;14031;50.158;8.626;2023-05-19T14:18:47;27.70;88.00
16174;DHT22;14031;50.158;8.626;2023-05-19T14:21:14;27.50;88.80
16174;DHT22;14031;50.158;8.626;2023-05-19T14:23:41;27.00;90.50
16174;DHT22;14031;50.158;8.626;2023-05-19T14:26:09;26.60;90.40
16174;DHT22;14031;50.158;8.626;2023-05-19T14:28:36;26.40;90.40
16174;DHT22;14031;50.158;8.626;2023-05-19T14:31:02;26.40;90.70
16174;DHT22;14031;50.158;8.626;2023-05-19T14:33:30;26.40;90.80
16174;DHT22;14031;50.158;8.626;2023-05-19T14:35:57;26.60;90.80
16174;DHT22;14031;50.158;8.626;2023-05-19T14:38:24;26.80;91.10
16174;DHT22;14031;50.158;8.626;2023-05-19T14:40:51;26.90;91.60
16174;DHT22;14031;50.158;8.626;2023-05-19T14:43:19;27.00;90.60
16174;DHT22;14031;50.158;8.626;2023-05-19T14:45:46;27.20;89.30
16174;DHT22;14031;50.158;8.626;2023-05-19T14:48:12;27.50;89.60
16174;DHT22;14031;50.158;8.626;2023-05-19T14:50:39;27.70;88.60
16174;DHT22;14031;50.158;8.626;2023-05-19T14:53:06;28.00;86.20
16174;DHT22;14031;50.158;8.626;2023-05-19T14:55:33;28.00;88.00
16174;DHT22;14031;50.158;8.626;2023-05-19T14:57:59;27.90;88.60
16174;DHT22;14031;50.158;8.626;2023-05-19T15:00:28;27.70;87.80
16174;DHT22;14031;50.158;8.626;2023-05-19T15:02:54;27.50;90.00
16174;DHT22;14031;50.158;8.626;2023-05-19T15:05:21;27.20;90.20
16174;DHT22;14031;50.158;8.626;2023-05-19T15:07:48;27.00;89.90
16174;DHT22;14031;50.158;8.626;2023-05-19T15:10:15;26.50;89.40
16174;DHT22;14031;50.158;8.626;2023-05-19T15:12:44;26.50;90.90
16174;DHT22;14031;50.158;8.626;2023-05-19T15:15:11;26.90;91.60
16174;DHT22;14031;50.158;8.626;2023-05-19T15:17:40;27.10;90.90
16174;DHT22;14031;50.158;8.626;2023-05-19T15:20:07;26.70;90.00
16174;DHT22;14031;50.158;8.626;2023-05-19T15:22:34;26.20;91.30
16174;DHT22;14031;50.158;8.626;2023-05-19T15:25:01;25.80;91.20
16174;DHT22;14031;50.158;8.626;2023-05-19T15:27:28;25.60;91.90
16174;DHT22;14031;50.158;8.626;2023-05-19T15:29:55;25.00;92.60
16174;DHT22;14031;50.158;8.626;2023-05-19T15:32:22;24.60;93.70
16174;DHT22;14031;50.158;8.626;2023-05-19T15:34:51;24.20;94.70
16174;DHT22;14031;50.158;8.626;2023-05-19T15:37:17;23.90;94.60
16174;DHT22;14031;50.158;8.626;2023-05-19T15:39:44;23.70;95.10
16174;DHT22;14031;50.158;8.626;2023-05-19T15:42:11;23.60;96.00